VSV887 UAAH-UAAA
Flight info
| Callsign | VSV887 |
|---|---|
| Flight time | 0h 47m |
| Altitude | 31000 |
| Route | TULPI5P TULPI L998 RITAB W333 ETEDA ETEDA1P |
| Aircraft | B738/M-SDE2E3FGHIRWXY/LB1 |
Departure
| Time | 2026-04-21 10:11 |
|---|---|
| Airport | Balkhash Airport (UAAH) |
Arrival
| Time | 2026-04-21 10:58 |
|---|---|
| Airport | Almaty International Airport (UAAA) |
| Time | Latitude | Longitude | Altitude | Speed | Heading |
|---|---|---|---|---|---|
| 2026-04-21 09:58 | 46.89386 | 75.01081 | 1433 ft | 0 kts | 142° |
| 2026-04-21 10:03 | 46.89395 | 75.01072 | 1433 ft | 2 kts | 142° |
| 2026-04-21 10:04 | 46.89411 | 75.01051 | 1433 ft | 2 kts | 114° |
| 2026-04-21 10:04 | 46.89414 | 75.01028 | 1433 ft | 2 kts | 73° |
| 2026-04-21 10:04 | 46.89410 | 75.01014 | 1432 ft | 0 kts | 50° |
| 2026-04-21 10:06 | 46.89410 | 75.01015 | 1433 ft | 1 kts | 50° |
| 2026-04-21 10:07 | 46.89428 | 75.01040 | 1433 ft | 6 kts | 41° |
| 2026-04-21 10:07 | 46.89476 | 75.01098 | 1435 ft | 11 kts | 37° |
| 2026-04-21 10:07 | 46.89540 | 75.01201 | 1437 ft | 16 kts | 51° |
| 2026-04-21 10:07 | 46.89609 | 75.01327 | 1441 ft | 16 kts | 51° |
| 2026-04-21 10:08 | 46.89675 | 75.01449 | 1443 ft | 15 kts | 51° |
| 2026-04-21 10:08 | 46.89739 | 75.01566 | 1443 ft | 14 kts | 51° |
| 2026-04-21 10:08 | 46.89799 | 75.01677 | 1448 ft | 14 kts | 52° |
| 2026-04-21 10:08 | 46.89856 | 75.01784 | 1451 ft | 13 kts | 52° |
| 2026-04-21 10:09 | 46.89910 | 75.01886 | 1452 ft | 9 kts | 52° |
| 2026-04-21 10:09 | 46.89953 | 75.01924 | 1455 ft | 7 kts | 354° |
| 2026-04-21 10:09 | 46.89995 | 75.01877 | 1455 ft | 9 kts | 322° |
| 2026-04-21 10:09 | 46.90058 | 75.01806 | 1455 ft | 14 kts | 322° |
| 2026-04-21 10:10 | 46.90103 | 75.01738 | 1454 ft | 8 kts | 275° |
| 2026-04-21 10:10 | 46.90071 | 75.01657 | 1451 ft | 17 kts | 232° |
| 2026-04-21 10:10 | 46.89831 | 75.01209 | 1442 ft | 98 kts | 232° |
| 2026-04-21 10:10 | 46.89248 | 75.00129 | 1420 ft | 170 kts | 231° |
| 2026-04-21 10:11 | 46.88459 | 74.98677 | 2091 ft | 185 kts | 230° |
| 2026-04-21 10:11 | 46.87593 | 74.97282 | 3156 ft | 184 kts | 212° |
| 2026-04-21 10:11 | 46.86346 | 74.96827 | 3822 ft | 201 kts | 171° |
| 2026-04-21 10:11 | 46.84967 | 74.97643 | 4082 ft | 230 kts | 153° |
| 2026-04-21 10:12 | 46.83459 | 74.98808 | 4391 ft | 260 kts | 153° |
| 2026-04-21 10:12 | 46.81812 | 75.00040 | 5167 ft | 270 kts | 156° |
| 2026-04-21 10:12 | 46.80099 | 75.01239 | 6010 ft | 275 kts | 154° |
| 2026-04-21 10:12 | 46.78370 | 75.02493 | 6887 ft | 279 kts | 155° |
| 2026-04-21 10:13 | 46.76618 | 75.03748 | 7715 ft | 283 kts | 155° |
| 2026-04-21 10:13 | 46.74827 | 75.05004 | 8511 ft | 287 kts | 156° |
| 2026-04-21 10:13 | 46.73008 | 75.06259 | 9316 ft | 291 kts | 156° |
| 2026-04-21 10:13 | 46.71156 | 75.07523 | 9822 ft | 294 kts | 157° |
| 2026-04-21 10:14 | 46.69291 | 75.08784 | 9990 ft | 298 kts | 157° |
| 2026-04-21 10:14 | 46.67431 | 75.10034 | 9989 ft | 298 kts | 157° |
| 2026-04-21 10:14 | 46.65555 | 75.11291 | 10011 ft | 297 kts | 157° |
| 2026-04-21 10:14 | 46.63629 | 75.12575 | 10129 ft | 316 kts | 157° |
| 2026-04-21 10:15 | 46.61561 | 75.13949 | 10436 ft | 334 kts | 157° |
| 2026-04-21 10:15 | 46.59419 | 75.15371 | 11052 ft | 341 kts | 157° |
| 2026-04-21 10:15 | 46.57252 | 75.16811 | 11838 ft | 343 kts | 157° |
| 2026-04-21 10:15 | 46.55072 | 75.18258 | 12628 ft | 346 kts | 158° |
| 2026-04-21 10:16 | 46.52870 | 75.19718 | 13396 ft | 350 kts | 158° |
| 2026-04-21 10:16 | 46.50632 | 75.21199 | 14121 ft | 355 kts | 158° |
| 2026-04-21 10:16 | 46.48369 | 75.22694 | 14806 ft | 360 kts | 158° |
| 2026-04-21 10:16 | 46.46071 | 75.24212 | 15516 ft | 365 kts | 158° |
| 2026-04-21 10:17 | 46.43741 | 75.25749 | 16213 ft | 370 kts | 158° |
| 2026-04-21 10:17 | 46.41379 | 75.27305 | 16917 ft | 375 kts | 158° |
| 2026-04-21 10:17 | 46.38984 | 75.28882 | 17604 ft | 381 kts | 158° |
| 2026-04-21 10:17 | 46.36557 | 75.30479 | 18280 ft | 386 kts | 158° |
| 2026-04-21 10:18 | 46.34099 | 75.32095 | 18900 ft | 389 kts | 158° |
| 2026-04-21 10:18 | 46.31634 | 75.33715 | 19591 ft | 390 kts | 158° |
| 2026-04-21 10:18 | 46.29157 | 75.35342 | 20247 ft | 392 kts | 158° |
| 2026-04-21 10:18 | 46.26664 | 75.36976 | 20873 ft | 395 kts | 158° |
| 2026-04-21 10:19 | 46.24152 | 75.38620 | 21483 ft | 398 kts | 158° |
| 2026-04-21 10:19 | 46.21624 | 75.40270 | 22091 ft | 400 kts | 159° |
| 2026-04-21 10:19 | 46.19067 | 75.41894 | 22684 ft | 403 kts | 159° |
| 2026-04-21 10:19 | 46.16507 | 75.43490 | 23246 ft | 406 kts | 159° |
| 2026-04-21 10:20 | 46.13903 | 75.45105 | 23769 ft | 409 kts | 159° |
| 2026-04-21 10:20 | 46.11278 | 75.46732 | 24257 ft | 411 kts | 159° |
| 2026-04-21 10:20 | 46.08637 | 75.48371 | 24733 ft | 414 kts | 159° |
| 2026-04-21 10:20 | 46.05976 | 75.50024 | 25193 ft | 417 kts | 159° |
| 2026-04-21 10:21 | 46.03308 | 75.51682 | 25667 ft | 419 kts | 159° |
| 2026-04-21 10:21 | 46.00637 | 75.53343 | 26272 ft | 417 kts | 159° |
| 2026-04-21 10:21 | 45.97988 | 75.54989 | 26936 ft | 413 kts | 159° |
| 2026-04-21 10:21 | 45.95350 | 75.56627 | 27554 ft | 412 kts | 159° |
| 2026-04-21 10:22 | 45.92718 | 75.58258 | 28116 ft | 411 kts | 159° |
| 2026-04-21 10:22 | 45.90095 | 75.59881 | 28707 ft | 410 kts | 159° |
| 2026-04-21 10:22 | 45.87514 | 75.61477 | 29284 ft | 409 kts | 158° |
| 2026-04-21 10:22 | 45.84904 | 75.63089 | 29842 ft | 408 kts | 158° |
| 2026-04-21 10:23 | 45.82300 | 75.64696 | 30339 ft | 407 kts | 159° |
| 2026-04-21 10:23 | 45.79701 | 75.66299 | 30827 ft | 406 kts | 158° |
| 2026-04-21 10:23 | 45.77094 | 75.67904 | 30897 ft | 412 kts | 158° |
| 2026-04-21 10:24 | 45.71708 | 75.71214 | 30928 ft | 429 kts | 158° |
| 2026-04-21 10:24 | 45.66115 | 75.74637 | 30931 ft | 445 kts | 158° |
| 2026-04-21 10:25 | 45.60330 | 75.78171 | 30923 ft | 459 kts | 158° |
| 2026-04-21 10:25 | 45.54413 | 75.81780 | 30918 ft | 470 kts | 158° |
| 2026-04-21 10:26 | 45.48324 | 75.85487 | 30922 ft | 479 kts | 158° |
| 2026-04-21 10:26 | 45.42166 | 75.89227 | 30907 ft | 481 kts | 158° |
| 2026-04-21 10:27 | 45.35995 | 75.92967 | 30907 ft | 481 kts | 158° |
| 2026-04-21 10:27 | 45.29833 | 75.96691 | 30909 ft | 481 kts | 158° |
| 2026-04-21 10:28 | 45.23699 | 76.00389 | 30910 ft | 482 kts | 158° |
| 2026-04-21 10:28 | 45.17525 | 76.04102 | 30913 ft | 482 kts | 158° |
| 2026-04-21 10:29 | 45.11337 | 76.07815 | 30915 ft | 483 kts | 158° |
| 2026-04-21 10:29 | 45.05144 | 76.11522 | 30905 ft | 483 kts | 158° |
| 2026-04-21 10:30 | 44.98942 | 76.15226 | 30908 ft | 483 kts | 158° |
| 2026-04-21 10:30 | 44.92779 | 76.18898 | 30908 ft | 484 kts | 158° |
| 2026-04-21 10:31 | 44.86571 | 76.22588 | 30907 ft | 484 kts | 158° |
| 2026-04-21 10:31 | 44.80355 | 76.26275 | 30912 ft | 485 kts | 158° |
| 2026-04-21 10:32 | 44.74115 | 76.29966 | 30905 ft | 486 kts | 158° |
| 2026-04-21 10:32 | 44.67884 | 76.33644 | 30904 ft | 486 kts | 158° |
| 2026-04-21 10:33 | 44.61633 | 76.37326 | 30908 ft | 487 kts | 158° |
| 2026-04-21 10:33 | 44.55408 | 76.40983 | 30909 ft | 488 kts | 158° |
| 2026-04-21 10:34 | 44.49100 | 76.44681 | 30905 ft | 489 kts | 158° |
| 2026-04-21 10:34 | 44.45985 | 76.46504 | 30890 ft | 478 kts | 158° |
| 2026-04-21 10:34 | 44.43005 | 76.48249 | 30882 ft | 451 kts | 158° |
| 2026-04-21 10:34 | 44.40182 | 76.49898 | 30878 ft | 427 kts | 158° |
| 2026-04-21 10:35 | 44.37491 | 76.51359 | 30839 ft | 405 kts | 167° |
| 2026-04-21 10:35 | 44.34768 | 76.51730 | 30385 ft | 396 kts | 188° |
| 2026-04-21 10:35 | 44.32094 | 76.50911 | 29684 ft | 393 kts | 203° |
| 2026-04-21 10:35 | 44.29688 | 76.49169 | 28991 ft | 387 kts | 218° |
| 2026-04-21 10:36 | 44.27521 | 76.46967 | 28422 ft | 383 kts | 220° |
| 2026-04-21 10:36 | 44.25419 | 76.44730 | 27876 ft | 379 kts | 220° |
| 2026-04-21 10:36 | 44.23331 | 76.42494 | 27303 ft | 377 kts | 220° |
| 2026-04-21 10:36 | 44.21252 | 76.40285 | 26762 ft | 375 kts | 220° |
| 2026-04-21 10:37 | 44.19178 | 76.38105 | 26252 ft | 372 kts | 220° |
| 2026-04-21 10:37 | 44.17120 | 76.35958 | 25790 ft | 363 kts | 218° |
| 2026-04-21 10:37 | 44.15146 | 76.33911 | 25712 ft | 345 kts | 218° |
| 2026-04-21 10:37 | 44.13245 | 76.31944 | 25420 ft | 336 kts | 219° |
| 2026-04-21 10:38 | 44.11379 | 76.30013 | 24917 ft | 333 kts | 219° |
| 2026-04-21 10:38 | 44.09519 | 76.28088 | 24377 ft | 333 kts | 219° |
| 2026-04-21 10:38 | 44.07663 | 76.26171 | 23883 ft | 331 kts | 219° |
| 2026-04-21 10:38 | 44.05819 | 76.24270 | 23405 ft | 328 kts | 219° |
| 2026-04-21 10:39 | 44.04015 | 76.22411 | 22867 ft | 325 kts | 218° |
| 2026-04-21 10:39 | 44.02017 | 76.20941 | 22312 ft | 329 kts | 200° |
| 2026-04-21 10:39 | 43.99749 | 76.20440 | 21800 ft | 333 kts | 183° |
| 2026-04-21 10:39 | 43.97443 | 76.20897 | 21267 ft | 336 kts | 172° |
| 2026-04-21 10:40 | 43.95168 | 76.21634 | 20756 ft | 335 kts | 172° |
| 2026-04-21 10:40 | 43.92902 | 76.22380 | 20243 ft | 333 kts | 173° |
| 2026-04-21 10:40 | 43.90648 | 76.22500 | 19702 ft | 320 kts | 196° |
| 2026-04-21 10:40 | 43.88628 | 76.21387 | 19225 ft | 308 kts | 218° |
| 2026-04-21 10:41 | 43.87042 | 76.19453 | 19015 ft | 304 kts | 233° |
| 2026-04-21 10:41 | 43.85954 | 76.17012 | 18958 ft | 301 kts | 245° |
| 2026-04-21 10:41 | 43.85083 | 76.14375 | 18927 ft | 300 kts | 247° |
| 2026-04-21 10:41 | 43.84238 | 76.11747 | 18916 ft | 298 kts | 247° |
| 2026-04-21 10:42 | 43.83312 | 76.09173 | 18915 ft | 300 kts | 238° |
| 2026-04-21 10:42 | 43.81894 | 76.07030 | 18932 ft | 304 kts | 225° |
| 2026-04-21 10:42 | 43.80293 | 76.05089 | 18927 ft | 306 kts | 224° |
| 2026-04-21 10:42 | 43.78679 | 76.03152 | 18930 ft | 308 kts | 224° |
| 2026-04-21 10:43 | 43.77070 | 76.01200 | 18927 ft | 308 kts | 224° |
| 2026-04-21 10:43 | 43.75466 | 75.99242 | 18913 ft | 307 kts | 224° |
| 2026-04-21 10:43 | 43.73676 | 75.97623 | 18920 ft | 312 kts | 207° |
| 2026-04-21 10:43 | 43.71613 | 75.96630 | 18928 ft | 314 kts | 202° |
| 2026-04-21 10:44 | 43.69516 | 75.95752 | 18921 ft | 316 kts | 197° |
| 2026-04-21 10:44 | 43.67298 | 75.95651 | 18931 ft | 326 kts | 175° |
| 2026-04-21 10:44 | 43.65133 | 75.96723 | 18916 ft | 338 kts | 153° |
| 2026-04-21 10:44 | 43.63331 | 75.98903 | 18502 ft | 356 kts | 128° |
| 2026-04-21 10:45 | 43.62357 | 76.02046 | 18083 ft | 361 kts | 102° |
| 2026-04-21 10:45 | 43.62029 | 76.05485 | 17602 ft | 360 kts | 97° |
| 2026-04-21 10:45 | 43.61800 | 76.08921 | 17101 ft | 357 kts | 96° |
| 2026-04-21 10:45 | 43.61581 | 76.12317 | 16636 ft | 353 kts | 96° |
| 2026-04-21 10:46 | 43.61346 | 76.15679 | 16190 ft | 350 kts | 97° |
| 2026-04-21 10:46 | 43.61098 | 76.18950 | 15765 ft | 346 kts | 97° |
| 2026-04-21 10:46 | 43.60838 | 76.22234 | 15340 ft | 343 kts | 97° |
| 2026-04-21 10:46 | 43.60576 | 76.25497 | 14918 ft | 340 kts | 97° |
| 2026-04-21 10:47 | 43.60150 | 76.28682 | 14481 ft | 334 kts | 114° |
| 2026-04-21 10:47 | 43.59447 | 76.30539 | 14214 ft | 327 kts | 130° |
| 2026-04-21 10:47 | 43.57862 | 76.32675 | 13835 ft | 314 kts | 151° |
| 2026-04-21 10:47 | 43.55258 | 76.34196 | 13285 ft | 299 kts | 172° |
| 2026-04-21 10:48 | 43.53919 | 76.34619 | 13032 ft | 296 kts | 173° |
| 2026-04-21 10:48 | 43.51916 | 76.35222 | 12642 ft | 294 kts | 173° |
| 2026-04-21 10:48 | 43.49916 | 76.35832 | 12283 ft | 295 kts | 172° |
| 2026-04-21 10:48 | 43.47930 | 76.36639 | 11919 ft | 303 kts | 157° |
| 2026-04-21 10:49 | 43.46229 | 76.38423 | 11476 ft | 311 kts | 139° |
| 2026-04-21 10:49 | 43.44690 | 76.40507 | 11041 ft | 309 kts | 139° |
| 2026-04-21 10:49 | 43.43157 | 76.42567 | 10631 ft | 307 kts | 139° |
| 2026-04-21 10:49 | 43.41625 | 76.44602 | 10218 ft | 305 kts | 140° |
| 2026-04-21 10:50 | 43.40097 | 76.46615 | 9924 ft | 299 kts | 139° |
| 2026-04-21 10:50 | 43.38629 | 76.48543 | 9796 ft | 289 kts | 140° |
| 2026-04-21 10:50 | 43.37169 | 76.50453 | 9414 ft | 287 kts | 139° |
| 2026-04-21 10:50 | 43.35944 | 76.52058 | 9154 ft | 283 kts | 139° |
| 2026-04-21 10:51 | 43.34529 | 76.53908 | 8921 ft | 278 kts | 139° |
| 2026-04-21 10:51 | 43.33133 | 76.55730 | 8657 ft | 276 kts | 139° |
| 2026-04-21 10:51 | 43.31745 | 76.57544 | 8405 ft | 274 kts | 138° |
| 2026-04-21 10:51 | 43.30372 | 76.59336 | 8147 ft | 271 kts | 138° |
| 2026-04-21 10:52 | 43.29016 | 76.61106 | 7922 ft | 269 kts | 138° |
| 2026-04-21 10:52 | 43.27677 | 76.62851 | 7677 ft | 266 kts | 138° |
| 2026-04-21 10:52 | 43.26489 | 76.64757 | 7426 ft | 263 kts | 118° |
| 2026-04-21 10:52 | 43.25919 | 76.67115 | 7187 ft | 260 kts | 103° |
| 2026-04-21 10:53 | 43.25535 | 76.69546 | 6912 ft | 260 kts | 102° |
| 2026-04-21 10:53 | 43.25152 | 76.71973 | 6627 ft | 259 kts | 102° |
| 2026-04-21 10:53 | 43.24765 | 76.74364 | 6357 ft | 256 kts | 102° |
| 2026-04-21 10:53 | 43.24372 | 76.76749 | 6063 ft | 258 kts | 102° |
| 2026-04-21 10:54 | 43.23975 | 76.79152 | 5761 ft | 259 kts | 101° |
| 2026-04-21 10:54 | 43.24005 | 76.81584 | 5439 ft | 255 kts | 69° |
| 2026-04-21 10:54 | 43.24967 | 76.83541 | 5196 ft | 245 kts | 47° |
| 2026-04-21 10:54 | 43.26024 | 76.85335 | 4945 ft | 240 kts | 54° |
| 2026-04-21 10:55 | 43.26938 | 76.87199 | 4719 ft | 235 kts | 56° |
| 2026-04-21 10:55 | 43.27850 | 76.89068 | 4425 ft | 233 kts | 56° |
| 2026-04-21 10:55 | 43.28741 | 76.90874 | 4281 ft | 220 kts | 54° |
| 2026-04-21 10:55 | 43.29552 | 76.92512 | 4202 ft | 196 kts | 55° |
| 2026-04-21 10:56 | 43.30272 | 76.93973 | 3974 ft | 183 kts | 54° |
| 2026-04-21 10:56 | 43.30960 | 76.95362 | 3677 ft | 167 kts | 55° |
| 2026-04-21 10:56 | 43.31595 | 76.96642 | 3309 ft | 157 kts | 54° |
| 2026-04-21 10:56 | 43.32188 | 76.97842 | 3082 ft | 150 kts | 54° |
| 2026-04-21 10:57 | 43.32787 | 76.99036 | 2735 ft | 154 kts | 54° |
| 2026-04-21 10:57 | 43.33367 | 77.00207 | 2513 ft | 144 kts | 55° |
| 2026-04-21 10:57 | 43.33909 | 77.01306 | 2346 ft | 134 kts | 55° |
| 2026-04-21 10:57 | 43.34417 | 77.02336 | 2231 ft | 121 kts | 55° |
| 2026-04-21 10:58 | 43.34816 | 77.03134 | 2227 ft | 79 kts | 56° |
| 2026-04-21 10:58 | 43.35075 | 77.03656 | 2228 ft | 57 kts | 56° |
| 2026-04-21 10:58 | 43.35222 | 77.03884 | 2224 ft | 23 kts | 36° |
| 2026-04-21 10:58 | 43.35358 | 77.03986 | 2223 ft | 18 kts | 26° |
| 2026-04-21 10:59 | 43.35370 | 77.03995 | 2222 ft | 0 kts | 27° |
| 2026-04-21 10:59 | 43.35385 | 77.04005 | 2221 ft | 6 kts | 26° |